sensor_id;sensor_type;location;lat;lon;timestamp;P1;durP1;ratioP1;P2;durP2;ratioP2
24383;SDS011;12504;52.870;8.798;2023-12-04T00:00:13;45.05;;;16.02;;
24383;SDS011;12504;52.870;8.798;2023-12-04T00:02:40;35.05;;;14.15;;
24383;SDS011;12504;52.870;8.798;2023-12-04T00:05:06;34.42;;;13.07;;
24383;SDS011;12504;52.870;8.798;2023-12-04T00:07:32;40.10;;;14.02;;
24383;SDS011;12504;52.870;8.798;2023-12-04T00:09:58;33.53;;;14.63;;
24383;SDS011;12504;52.870;8.798;2023-12-04T00:12:24;39.28;;;12.75;;
24383;SDS011;12504;52.870;8.798;2023-12-04T00:14:51;41.78;;;15.80;;
24383;SDS011;12504;52.870;8.798;2023-12-04T00:17:17;36.90;;;13.50;;
24383;SDS011;12504;52.870;8.798;2023-12-04T00:19:43;38.13;;;13.48;;
24383;SDS011;12504;52.870;8.798;2023-12-04T00:22:09;35.03;;;12.85;;
24383;SDS011;12504;52.870;8.798;2023-12-04T00:24:35;43.78;;;13.70;;
24383;SDS011;12504;52.870;8.798;2023-12-04T00:27:01;44.60;;;15.38;;
24383;SDS011;12504;52.870;8.798;2023-12-04T00:29:27;30.23;;;12.80;;
24383;SDS011;12504;52.870;8.798;2023-12-04T00:31:53;37.80;;;14.30;;
24383;SDS011;12504;52.870;8.798;2023-12-04T00:34:22;44.25;;;16.42;;
24383;SDS011;12504;52.870;8.798;2023-12-04T00:36:48;38.30;;;13.48;;
24383;SDS011;12504;52.870;8.798;2023-12-04T00:39:14;38.83;;;14.35;;
24383;SDS011;12504;52.870;8.798;2023-12-04T00:41:40;41.58;;;14.57;;
24383;SDS011;12504;52.870;8.798;2023-12-04T00:44:06;37.83;;;14.43;;
24383;SDS011;12504;52.870;8.798;2023-12-04T00:46:32;44.72;;;13.82;;
24383;SDS011;12504;52.870;8.798;2023-12-04T00:48:58;42.45;;;14.52;;
24383;SDS011;12504;52.870;8.798;2023-12-04T00:51:24;42.75;;;13.60;;
24383;SDS011;12504;52.870;8.798;2023-12-04T00:53:51;36.00;;;12.27;;
24383;SDS011;12504;52.870;8.798;2023-12-04T00:56:17;32.40;;;11.88;;
24383;SDS011;12504;52.870;8.798;2023-12-04T00:58:45;39.97;;;12.35;;
24383;SDS011;12504;52.870;8.798;2023-12-04T01:01:11;30.77;;;12.38;;
24383;SDS011;12504;52.870;8.798;2023-12-04T01:03:38;34.53;;;12.15;;
24383;SDS011;12504;52.870;8.798;2023-12-04T01:06:05;35.55;;;12.30;;
24383;SDS011;12504;52.870;8.798;2023-12-04T01:08:31;31.63;;;12.07;;
24383;SDS011;12504;52.870;8.798;2023-12-04T01:10:57;36.63;;;12.80;;
24383;SDS011;12504;52.870;8.798;2023-12-04T01:13:23;31.48;;;12.90;;
24383;SDS011;12504;52.870;8.798;2023-12-04T01:15:49;29.45;;;12.80;;
24383;SDS011;12504;52.870;8.798;2023-12-04T01:18:15;38.08;;;12.95;;
24383;SDS011;12504;52.870;8.798;2023-12-04T01:20:42;36.90;;;12.50;;
24383;SDS011;12504;52.870;8.798;2023-12-04T01:23:08;31.73;;;10.93;;
24383;SDS011;12504;52.870;8.798;2023-12-04T01:25:34;35.42;;;12.15;;
24383;SDS011;12504;52.870;8.798;2023-12-04T01:28:00;34.08;;;13.13;;
24383;SDS011;12504;52.870;8.798;2023-12-04T01:30:26;24.95;;;11.27;;
24383;SDS011;12504;52.870;8.798;2023-12-04T01:32:52;29.35;;;12.25;;
24383;SDS011;12504;52.870;8.798;2023-12-04T01:35:18;28.17;;;10.77;;
24383;SDS011;12504;52.870;8.798;2023-12-04T01:37:44;25.65;;;10.93;;
24383;SDS011;12504;52.870;8.798;2023-12-04T01:40:11;30.38;;;12.25;;
24383;SDS011;12504;52.870;8.798;2023-12-04T01:42:37;31.77;;;12.65;;
24383;SDS011;12504;52.870;8.798;2023-12-04T01:45:03;34.78;;;11.75;;
24383;SDS011;12504;52.870;8.798;2023-12-04T01:47:30;29.92;;;11.75;;
24383;SDS011;12504;52.870;8.798;2023-12-04T01:49:56;35.50;;;12.55;;
24383;SDS011;12504;52.870;8.798;2023-12-04T01:52:22;24.73;;;10.35;;
24383;SDS011;12504;52.870;8.798;2023-12-04T01:54:48;26.58;;;10.77;;
24383;SDS011;12504;52.870;8.798;2023-12-04T01:57:14;41.13;;;12.90;;
24383;SDS011;12504;52.870;8.798;2023-12-04T01:59:40;30.73;;;12.27;;
24383;SDS011;12504;52.870;8.798;2023-12-04T02:02:07;30.80;;;11.68;;
24383;SDS011;12504;52.870;8.798;2023-12-04T02:04:33;32.33;;;11.07;;
24383;SDS011;12504;52.870;8.798;2023-12-04T02:06:59;30.58;;;12.45;;
24383;SDS011;12504;52.870;8.798;2023-12-04T02:09:25;28.95;;;10.68;;
24383;SDS011;12504;52.870;8.798;2023-12-04T02:11:52;35.28;;;12.23;;
24383;SDS011;12504;52.870;8.798;2023-12-04T02:14:18;28.58;;;10.25;;
24383;SDS011;12504;52.870;8.798;2023-12-04T02:16:44;32.63;;;12.80;;
24383;SDS011;12504;52.870;8.798;2023-12-04T02:19:11;30.92;;;12.10;;
24383;SDS011;12504;52.870;8.798;2023-12-04T02:21:38;31.55;;;11.90;;
24383;SDS011;12504;52.870;8.798;2023-12-04T02:24:04;29.58;;;11.38;;
24383;SDS011;12504;52.870;8.798;2023-12-04T02:26:32;27.23;;;11.57;;
24383;SDS011;12504;52.870;8.798;2023-12-04T02:29:00;27.45;;;11.30;;
24383;SDS011;12504;52.870;8.798;2023-12-04T02:31:27;33.47;;;12.13;;
24383;SDS011;12504;52.870;8.798;2023-12-04T02:33:55;30.90;;;11.02;;
24383;SDS011;12504;52.870;8.798;2023-12-04T02:36:22;27.30;;;10.70;;
24383;SDS011;12504;52.870;8.798;2023-12-04T02:38:48;31.33;;;10.90;;
24383;SDS011;12504;52.870;8.798;2023-12-04T02:41:14;24.23;;;10.57;;
24383;SDS011;12504;52.870;8.798;2023-12-04T02:43:42;34.20;;;12.23;;
24383;SDS011;12504;52.870;8.798;2023-12-04T02:46:08;31.42;;;12.40;;
24383;SDS011;12504;52.870;8.798;2023-12-04T02:48:34;28.90;;;12.07;;
24383;SDS011;12504;52.870;8.798;2023-12-04T02:51:00;25.05;;;11.27;;
24383;SDS011;12504;52.870;8.798;2023-12-04T02:53:26;32.83;;;11.20;;
24383;SDS011;12504;52.870;8.798;2023-12-04T02:55:52;23.70;;;10.07;;
24383;SDS011;12504;52.870;8.798;2023-12-04T02:58:18;29.60;;;11.70;;
24383;SDS011;12504;52.870;8.798;2023-12-04T03:00:44;33.83;;;11.30;;
24383;SDS011;12504;52.870;8.798;2023-12-04T03:03:10;31.52;;;11.55;;
24383;SDS011;12504;52.870;8.798;2023-12-04T03:05:36;22.40;;;10.52;;
24383;SDS011;12504;52.870;8.798;2023-12-04T03:08:02;31.08;;;10.48;;
24383;SDS011;12504;52.870;8.798;2023-12-04T03:10:29;27.80;;;11.05;;
24383;SDS011;12504;52.870;8.798;2023-12-04T03:12:55;31.55;;;12.73;;
24383;SDS011;12504;52.870;8.798;2023-12-04T03:15:21;30.25;;;11.02;;
24383;SDS011;12504;52.870;8.798;2023-12-04T03:17:47;26.77;;;10.20;;
24383;SDS011;12504;52.870;8.798;2023-12-04T03:20:13;26.17;;;10.40;;
24383;SDS011;12504;52.870;8.798;2023-12-04T03:22:39;26.77;;;11.48;;
24383;SDS011;12504;52.870;8.798;2023-12-04T03:25:05;28.95;;;11.88;;
24383;SDS011;12504;52.870;8.798;2023-12-04T03:27:31;29.13;;;12.98;;
24383;SDS011;12504;52.870;8.798;2023-12-04T03:29:58;42.85;;;11.48;;
24383;SDS011;12504;52.870;8.798;2023-12-04T03:32:24;28.00;;;10.48;;
24383;SDS011;12504;52.870;8.798;2023-12-04T03:34:50;31.63;;;11.88;;
24383;SDS011;12504;52.870;8.798;2023-12-04T03:37:16;29.50;;;9.57;;
24383;SDS011;12504;52.870;8.798;2023-12-04T03:39:42;30.33;;;11.90;;
24383;SDS011;12504;52.870;8.798;2023-12-04T03:42:08;32.08;;;10.38;;
24383;SDS011;12504;52.870;8.798;2023-12-04T03:44:34;27.98;;;11.18;;
24383;SDS011;12504;52.870;8.798;2023-12-04T03:47:00;31.92;;;11.60;;
24383;SDS011;12504;52.870;8.798;2023-12-04T03:49:26;30.63;;;11.27;;
24383;SDS011;12504;52.870;8.798;2023-12-04T03:51:53;28.95;;;11.07;;
24383;SDS011;12504;52.870;8.798;2023-12-04T03:54:19;26.60;;;10.82;;
24383;SDS011;12504;52.870;8.798;2023-12-04T03:56:45;24.88;;;9.95;;
24383;SDS011;12504;52.870;8.798;2023-12-04T03:59:11;25.27;;;9.73;;
24383;SDS011;12504;52.870;8.798;2023-12-04T04:01:37;26.75;;;10.98;;
24383;SDS011;12504;52.870;8.798;2023-12-04T04:04:04;23.67;;;9.98;;
24383;SDS011;12504;52.870;8.798;2023-12-04T04:06:30;25.23;;;11.48;;
24383;SDS011;12504;52.870;8.798;2023-12-04T04:08:56;22.27;;;9.75;;
24383;SDS011;12504;52.870;8.798;2023-12-04T04:11:22;30.25;;;11.35;;
24383;SDS011;12504;52.870;8.798;2023-12-04T04:13:48;29.73;;;11.07;;
24383;SDS011;12504;52.870;8.798;2023-12-04T04:16:15;30.58;;;10.52;;
24383;SDS011;12504;52.870;8.798;2023-12-04T04:18:41;29.80;;;11.88;;
24383;SDS011;12504;52.870;8.798;2023-12-04T04:21:08;25.05;;;10.02;;
24383;SDS011;12504;52.870;8.798;2023-12-04T04:23:34;35.40;;;12.05;;
24383;SDS011;12504;52.870;8.798;2023-12-04T04:26:00;20.25;;;9.13;;
24383;SDS011;12504;52.870;8.798;2023-12-04T04:28:27;32.25;;;10.98;;
24383;SDS011;12504;52.870;8.798;2023-12-04T04:30:53;25.05;;;11.57;;
24383;SDS011;12504;52.870;8.798;2023-12-04T04:33:19;25.98;;;10.15;;
24383;SDS011;12504;52.870;8.798;2023-12-04T04:35:45;34.90;;;10.20;;
24383;SDS011;12504;52.870;8.798;2023-12-04T04:38:11;29.55;;;10.30;;
24383;SDS011;12504;52.870;8.798;2023-12-04T04:40:38;35.35;;;11.82;;
24383;SDS011;12504;52.870;8.798;2023-12-04T04:43:07;26.75;;;10.23;;
24383;SDS011;12504;52.870;8.798;2023-12-04T04:45:33;28.13;;;10.52;;
24383;SDS011;12504;52.870;8.798;2023-12-04T04:47:59;27.70;;;10.18;;
24383;SDS011;12504;52.870;8.798;2023-12-04T04:50:25;24.08;;;10.63;;
24383;SDS011;12504;52.870;8.798;2023-12-04T04:52:51;34.40;;;11.63;;
24383;SDS011;12504;52.870;8.798;2023-12-04T04:55:17;28.27;;;11.30;;
24383;SDS011;12504;52.870;8.798;2023-12-04T04:57:44;23.20;;;9.38;;
24383;SDS011;12504;52.870;8.798;2023-12-04T05:00:10;26.20;;;11.05;;
24383;SDS011;12504;52.870;8.798;2023-12-04T05:02:36;31.83;;;11.75;;
24383;SDS011;12504;52.870;8.798;2023-12-04T05:05:02;25.52;;;9.70;;
24383;SDS011;12504;52.870;8.798;2023-12-04T05:07:29;30.77;;;12.20;;
24383;SDS011;12504;52.870;8.798;2023-12-04T05:09:55;25.17;;;11.20;;
24383;SDS011;12504;52.870;8.798;2023-12-04T05:12:21;23.40;;;10.80;;
24383;SDS011;12504;52.870;8.798;2023-12-04T05:14:47;25.38;;;10.85;;
24383;SDS011;12504;52.870;8.798;2023-12-04T05:17:14;29.35;;;11.02;;
24383;SDS011;12504;52.870;8.798;2023-12-04T05:19:40;27.30;;;10.40;;
24383;SDS011;12504;52.870;8.798;2023-12-04T05:22:06;31.33;;;11.95;;
24383;SDS011;12504;52.870;8.798;2023-12-04T05:24:32;32.42;;;11.48;;
24383;SDS011;12504;52.870;8.798;2023-12-04T05:26:58;33.45;;;11.85;;
24383;SDS011;12504;52.870;8.798;2023-12-04T05:29:24;25.52;;;10.82;;
24383;SDS011;12504;52.870;8.798;2023-12-04T05:31:51;37.40;;;11.55;;
24383;SDS011;12504;52.870;8.798;2023-12-04T05:34:17;36.75;;;12.18;;
24383;SDS011;12504;52.870;8.798;2023-12-04T05:36:43;30.10;;;11.00;;
24383;SDS011;12504;52.870;8.798;2023-12-04T05:39:09;24.23;;;10.93;;
24383;SDS011;12504;52.870;8.798;2023-12-04T05:41:35;27.15;;;11.32;;
24383;SDS011;12504;52.870;8.798;2023-12-04T05:44:01;34.47;;;14.05;;
24383;SDS011;12504;52.870;8.798;2023-12-04T05:46:27;32.72;;;13.38;;
24383;SDS011;12504;52.870;8.798;2023-12-04T05:48:53;31.60;;;12.15;;
24383;SDS011;12504;52.870;8.798;2023-12-04T05:51:19;26.17;;;11.63;;
24383;SDS011;12504;52.870;8.798;2023-12-04T05:53:47;35.65;;;13.25;;
24383;SDS011;12504;52.870;8.798;2023-12-04T05:56:13;34.28;;;15.80;;
24383;SDS011;12504;52.870;8.798;2023-12-04T05:58:39;34.80;;;16.98;;
24383;SDS011;12504;52.870;8.798;2023-12-04T06:01:05;37.47;;;15.00;;
24383;SDS011;12504;52.870;8.798;2023-12-04T06:03:32;32.47;;;12.23;;
24383;SDS011;12504;52.870;8.798;2023-12-04T06:05:58;39.88;;;13.90;;
24383;SDS011;12504;52.870;8.798;2023-12-04T06:08:24;32.78;;;13.90;;
24383;SDS011;12504;52.870;8.798;2023-12-04T06:10:50;26.27;;;12.43;;
24383;SDS011;12504;52.870;8.798;2023-12-04T06:13:16;32.55;;;14.13;;
24383;SDS011;12504;52.870;8.798;2023-12-04T06:15:42;28.38;;;12.20;;
24383;SDS011;12504;52.870;8.798;2023-12-04T06:18:09;27.08;;;11.73;;
24383;SDS011;12504;52.870;8.798;2023-12-04T06:20:35;28.88;;;13.55;;
24383;SDS011;12504;52.870;8.798;2023-12-04T06:23:01;29.63;;;11.50;;
24383;SDS011;12504;52.870;8.798;2023-12-04T06:25:27;30.08;;;12.02;;
24383;SDS011;12504;52.870;8.798;2023-12-04T06:27:53;29.30;;;12.40;;
24383;SDS011;12504;52.870;8.798;2023-12-04T06:30:20;18.23;;;8.95;;
24383;SDS011;12504;52.870;8.798;2023-12-04T06:32:46;29.25;;;11.00;;
24383;SDS011;12504;52.870;8.798;2023-12-04T06:35:12;33.28;;;10.60;;
24383;SDS011;12504;52.870;8.798;2023-12-04T06:37:40;31.63;;;12.15;;
24383;SDS011;12504;52.870;8.798;2023-12-04T06:40:06;28.27;;;10.85;;
24383;SDS011;12504;52.870;8.798;2023-12-04T06:45:02;26.33;;;11.60;;
24383;SDS011;12504;52.870;8.798;2023-12-04T06:47:29;27.30;;;10.07;;
24383;SDS011;12504;52.870;8.798;2023-12-04T06:49:56;30.80;;;11.65;;
24383;SDS011;12504;52.870;8.798;2023-12-04T06:52:22;32.13;;;10.65;;
24383;SDS011;12504;52.870;8.798;2023-12-04T06:54:49;28.52;;;11.38;;
24383;SDS011;12504;52.870;8.798;2023-12-04T06:57:15;24.83;;;11.60;;
24383;SDS011;12504;52.870;8.798;2023-12-04T06:59:42;25.98;;;10.85;;
24383;SDS011;12504;52.870;8.798;2023-12-04T07:02:08;35.25;;;12.50;;
24383;SDS011;12504;52.870;8.798;2023-12-04T07:04:34;23.10;;;8.98;;
24383;SDS011;12504;52.870;8.798;2023-12-04T07:07:00;25.73;;;10.95;;
24383;SDS011;12504;52.870;8.798;2023-12-04T07:09:33;31.80;;;11.38;;
24383;SDS011;12504;52.870;8.798;2023-12-04T07:11:59;24.85;;;10.75;;
24383;SDS011;12504;52.870;8.798;2023-12-04T07:14:25;27.33;;;9.95;;
24383;SDS011;12504;52.870;8.798;2023-12-04T07:16:52;33.00;;;11.52;;
24383;SDS011;12504;52.870;8.798;2023-12-04T07:19:18;24.95;;;10.18;;
24383;SDS011;12504;52.870;8.798;2023-12-04T07:21:45;30.55;;;11.40;;
24383;SDS011;12504;52.870;8.798;2023-12-04T07:24:11;21.42;;;9.10;;
24383;SDS011;12504;52.870;8.798;2023-12-04T07:26:37;29.95;;;9.82;;
24383;SDS011;12504;52.870;8.798;2023-12-04T07:29:03;26.77;;;9.43;;
24383;SDS011;12504;52.870;8.798;2023-12-04T07:31:29;24.42;;;9.95;;
24383;SDS011;12504;52.870;8.798;2023-12-04T07:33:56;24.45;;;9.32;;
24383;SDS011;12504;52.870;8.798;2023-12-04T07:36:22;27.05;;;10.48;;
24383;SDS011;12504;52.870;8.798;2023-12-04T07:38:50;23.60;;;9.48;;
24383;SDS011;12504;52.870;8.798;2023-12-04T07:41:17;21.05;;;8.63;;
24383;SDS011;12504;52.870;8.798;2023-12-04T07:43:43;35.17;;;10.57;;
24383;SDS011;12504;52.870;8.798;2023-12-04T07:46:09;21.63;;;9.18;;
24383;SDS011;12504;52.870;8.798;2023-12-04T07:48:36;21.92;;;9.68;;
24383;SDS011;12504;52.870;8.798;2023-12-04T07:51:02;24.17;;;9.48;;
24383;SDS011;12504;52.870;8.798;2023-12-04T07:53:29;23.35;;;9.07;;
24383;SDS011;12504;52.870;8.798;2023-12-04T07:55:55;19.55;;;8.73;;
24383;SDS011;12504;52.870;8.798;2023-12-04T07:58:21;22.98;;;9.60;;
24383;SDS011;12504;52.870;8.798;2023-12-04T08:00:47;27.25;;;11.38;;
24383;SDS011;12504;52.870;8.798;2023-12-04T08:03:15;27.63;;;8.98;;
24383;SDS011;12504;52.870;8.798;2023-12-04T08:05:41;22.25;;;9.35;;
24383;SDS011;12504;52.870;8.798;2023-12-04T08:08:07;28.90;;;10.43;;
24383;SDS011;12504;52.870;8.798;2023-12-04T08:10:34;20.10;;;8.27;;
24383;SDS011;12504;52.870;8.798;2023-12-04T08:13:00;26.05;;;10.85;;
24383;SDS011;12504;52.870;8.798;2023-12-04T08:15:26;28.40;;;10.68;;
24383;SDS011;12504;52.870;8.798;2023-12-04T08:17:52;22.70;;;9.88;;
24383;SDS011;12504;52.870;8.798;2023-12-04T08:20:18;21.40;;;9.30;;
24383;SDS011;12504;52.870;8.798;2023-12-04T08:22:47;26.40;;;10.40;;
24383;SDS011;12504;52.870;8.798;2023-12-04T08:25:13;28.65;;;10.85;;
24383;SDS011;12504;52.870;8.798;2023-12-04T08:27:39;23.70;;;8.55;;
24383;SDS011;12504;52.870;8.798;2023-12-04T08:30:05;20.75;;;7.93;;
24383;SDS011;12504;52.870;8.798;2023-12-04T08:32:32;24.95;;;8.70;;
24383;SDS011;12504;52.870;8.798;2023-12-04T08:34:59;30.77;;;9.80;;
24383;SDS011;12504;52.870;8.798;2023-12-04T08:37:25;27.95;;;10.70;;
24383;SDS011;12504;52.870;8.798;2023-12-04T08:39:51;22.65;;;9.20;;
24383;SDS011;12504;52.870;8.798;2023-12-04T08:42:18;20.50;;;9.30;;
24383;SDS011;12504;52.870;8.798;2023-12-04T08:44:44;20.92;;;9.55;;
24383;SDS011;12504;52.870;8.798;2023-12-04T08:47:12;21.58;;;8.90;;
24383;SDS011;12504;52.870;8.798;2023-12-04T08:49:39;27.50;;;10.32;;
24383;SDS011;12504;52.870;8.798;2023-12-04T08:52:06;24.75;;;8.68;;
24383;SDS011;12504;52.870;8.798;2023-12-04T08:54:32;18.38;;;8.38;;
24383;SDS011;12504;52.870;8.798;2023-12-04T08:56:59;29.75;;;9.40;;
24383;SDS011;12504;52.870;8.798;2023-12-04T08:59:25;23.55;;;9.57;;
24383;SDS011;12504;52.870;8.798;2023-12-04T09:01:51;27.65;;;10.02;;
24383;SDS011;12504;52.870;8.798;2023-12-04T09:04:17;20.88;;;8.60;;
24383;SDS011;12504;52.870;8.798;2023-12-04T09:06:43;27.42;;;10.48;;
24383;SDS011;12504;52.870;8.798;2023-12-04T09:09:09;21.92;;;7.85;;
24383;SDS011;12504;52.870;8.798;2023-12-04T09:11:40;28.25;;;9.30;;
24383;SDS011;12504;52.870;8.798;2023-12-04T09:14:06;19.90;;;9.35;;
24383;SDS011;12504;52.870;8.798;2023-12-04T09:16:32;22.52;;;9.55;;
24383;SDS011;12504;52.870;8.798;2023-12-04T09:18:58;20.27;;;8.02;;
24383;SDS011;12504;52.870;8.798;2023-12-04T09:21:24;18.85;;;8.95;;
24383;SDS011;12504;52.870;8.798;2023-12-04T09:23:51;25.50;;;9.02;;
24383;SDS011;12504;52.870;8.798;2023-12-04T09:26:17;17.25;;;8.18;;
24383;SDS011;12504;52.870;8.798;2023-12-04T09:28:44;24.60;;;8.98;;
24383;SDS011;12504;52.870;8.798;2023-12-04T09:31:10;18.63;;;8.25;;
24383;SDS011;12504;52.870;8.798;2023-12-04T09:33:36;19.75;;;8.20;;
24383;SDS011;12504;52.870;8.798;2023-12-04T09:36:02;25.13;;;8.50;;
24383;SDS011;12504;52.870;8.798;2023-12-04T09:38:28;14.73;;;7.22;;
24383;SDS011;12504;52.870;8.798;2023-12-04T09:40:54;18.70;;;8.15;;
24383;SDS011;12504;52.870;8.798;2023-12-04T09:43:24;22.73;;;8.50;;
24383;SDS011;12504;52.870;8.798;2023-12-04T09:45:51;19.42;;;7.78;;
24383;SDS011;12504;52.870;8.798;2023-12-04T09:48:17;22.05;;;8.90;;
24383;SDS011;12504;52.870;8.798;2023-12-04T09:50:43;22.17;;;9.35;;
24383;SDS011;12504;52.870;8.798;2023-12-04T09:53:11;20.08;;;8.27;;
24383;SDS011;12504;52.870;8.798;2023-12-04T09:55:38;19.73;;;7.78;;
24383;SDS011;12504;52.870;8.798;2023-12-04T09:58:05;18.70;;;8.88;;
24383;SDS011;12504;52.870;8.798;2023-12-04T10:00:31;19.90;;;8.63;;
24383;SDS011;12504;52.870;8.798;2023-12-04T10:02:57;24.27;;;8.93;;
24383;SDS011;12504;52.870;8.798;2023-12-04T10:05:24;24.38;;;9.82;;
24383;SDS011;12504;52.870;8.798;2023-12-04T10:07:50;20.45;;;8.13;;
24383;SDS011;12504;52.870;8.798;2023-12-04T10:10:16;20.40;;;8.88;;
24383;SDS011;12504;52.870;8.798;2023-12-04T10:12:42;17.40;;;7.75;;
24383;SDS011;12504;52.870;8.798;2023-12-04T10:15:09;18.65;;;9.02;;
24383;SDS011;12504;52.870;8.798;2023-12-04T10:17:39;19.15;;;7.72;;
24383;SDS011;12504;52.870;8.798;2023-12-04T10:22:37;21.70;;;9.25;;
24383;SDS011;12504;52.870;8.798;2023-12-04T10:25:17;21.55;;;9.07;;
24383;SDS011;12504;52.870;8.798;2023-12-04T10:27:44;17.65;;;8.23;;
24383;SDS011;12504;52.870;8.798;2023-12-04T10:30:20;18.33;;;7.95;;
24383;SDS011;12504;52.870;8.798;2023-12-04T10:32:48;19.15;;;8.20;;
24383;SDS011;12504;52.870;8.798;2023-12-04T10:35:13;21.38;;;8.45;;
24383;SDS011;12504;52.870;8.798;2023-12-04T10:37:39;20.77;;;8.57;;
24383;SDS011;12504;52.870;8.798;2023-12-04T10:40:05;13.90;;;6.55;;
24383;SDS011;12504;52.870;8.798;2023-12-04T10:42:34;17.63;;;7.90;;
24383;SDS011;12504;52.870;8.798;2023-12-04T10:45:00;17.40;;;8.32;;
24383;SDS011;12504;52.870;8.798;2023-12-04T10:47:27;14.90;;;8.55;;
24383;SDS011;12504;52.870;8.798;2023-12-04T10:49:57;18.45;;;8.88;;
24383;SDS011;12504;52.870;8.798;2023-12-04T10:52:23;15.65;;;7.43;;
24383;SDS011;12504;52.870;8.798;2023-12-04T10:54:49;22.02;;;8.80;;
24383;SDS011;12504;52.870;8.798;2023-12-04T10:57:23;20.25;;;10.20;;
24383;SDS011;12504;52.870;8.798;2023-12-04T10:59:52;24.52;;;9.57;;
24383;SDS011;12504;52.870;8.798;2023-12-04T11:02:25;18.75;;;7.25;;
24383;SDS011;12504;52.870;8.798;2023-12-04T11:04:53;16.55;;;7.82;;
24383;SDS011;12504;52.870;8.798;2023-12-04T11:07:23;19.02;;;8.95;;
24383;SDS011;12504;52.870;8.798;2023-12-04T11:09:50;18.10;;;8.98;;
24383;SDS011;12504;52.870;8.798;2023-12-04T11:12:17;16.65;;;7.82;;
24383;SDS011;12504;52.870;8.798;2023-12-04T11:14:46;19.33;;;8.23;;
24383;SDS011;12504;52.870;8.798;2023-12-04T11:17:20;14.90;;;7.07;;
24383;SDS011;12504;52.870;8.798;2023-12-04T11:19:52;18.70;;;7.63;;
24383;SDS011;12504;52.870;8.798;2023-12-04T11:22:21;19.65;;;7.30;;
24383;SDS011;12504;52.870;8.798;2023-12-04T11:24:47;20.80;;;7.05;;
24383;SDS011;12504;52.870;8.798;2023-12-04T11:27:16;14.57;;;7.45;;
24383;SDS011;12504;52.870;8.798;2023-12-04T11:29:44;19.85;;;7.43;;
24383;SDS011;12504;52.870;8.798;2023-12-04T11:32:14;20.98;;;8.32;;
24383;SDS011;12504;52.870;8.798;2023-12-04T11:34:59;16.55;;;8.25;;
24383;SDS011;12504;52.870;8.798;2023-12-04T11:37:27;19.65;;;7.68;;
24383;SDS011;12504;52.870;8.798;2023-12-04T11:39:53;19.45;;;7.97;;
24383;SDS011;12504;52.870;8.798;2023-12-04T11:42:21;18.10;;;7.38;;
24383;SDS011;12504;52.870;8.798;2023-12-04T11:44:49;12.13;;;6.80;;
24383;SDS011;12504;52.870;8.798;2023-12-04T11:47:20;14.63;;;7.40;;
24383;SDS011;12504;52.870;8.798;2023-12-04T11:49:46;20.25;;;9.05;;
24383;SDS011;12504;52.870;8.798;2023-12-04T11:52:12;11.88;;;6.80;;
24383;SDS011;12504;52.870;8.798;2023-12-04T11:54:56;14.63;;;7.70;;
24383;SDS011;12504;52.870;8.798;2023-12-04T11:57:36;13.27;;;6.55;;
24383;SDS011;12504;52.870;8.798;2023-12-04T12:00:19;16.85;;;7.32;;
24383;SDS011;12504;52.870;8.798;2023-12-04T12:02:48;19.20;;;8.27;;
24383;SDS011;12504;52.870;8.798;2023-12-04T12:05:26;16.02;;;6.15;;
24383;SDS011;12504;52.870;8.798;2023-12-04T12:07:52;15.07;;;7.20;;
24383;SDS011;12504;52.870;8.798;2023-12-04T12:10:18;14.75;;;7.13;;
24383;SDS011;12504;52.870;8.798;2023-12-04T12:12:43;23.40;;;8.40;;
24383;SDS011;12504;52.870;8.798;2023-12-04T12:15:10;15.18;;;7.28;;
24383;SDS011;12504;52.870;8.798;2023-12-04T12:17:40;18.08;;;7.82;;
24383;SDS011;12504;52.870;8.798;2023-12-04T12:20:06;23.73;;;9.00;;
24383;SDS011;12504;52.870;8.798;2023-12-04T12:22:34;17.70;;;7.70;;
24383;SDS011;12504;52.870;8.798;2023-12-04T12:25:00;14.32;;;6.78;;
24383;SDS011;12504;52.870;8.798;2023-12-04T12:27:27;19.73;;;7.88;;
24383;SDS011;12504;52.870;8.798;2023-12-04T12:29:53;25.08;;;9.57;;
24383;SDS011;12504;52.870;8.798;2023-12-04T12:32:19;16.30;;;8.07;;
24383;SDS011;12504;52.870;8.798;2023-12-04T12:34:45;16.65;;;7.78;;
24383;SDS011;12504;52.870;8.798;2023-12-04T12:37:11;22.73;;;8.73;;
24383;SDS011;12504;52.870;8.798;2023-12-04T12:39:37;19.25;;;8.32;;
24383;SDS011;12504;52.870;8.798;2023-12-04T12:42:03;19.45;;;8.25;;
24383;SDS011;12504;52.870;8.798;2023-12-04T12:44:39;15.90;;;8.15;;
24383;SDS011;12504;52.870;8.798;2023-12-04T12:47:08;19.45;;;8.63;;
24383;SDS011;12504;52.870;8.798;2023-12-04T12:49:35;17.30;;;8.63;;
24383;SDS011;12504;52.870;8.798;2023-12-04T12:52:02;15.68;;;7.05;;
24383;SDS011;12504;52.870;8.798;2023-12-04T12:54:33;14.15;;;7.45;;
24383;SDS011;12504;52.870;8.798;2023-12-04T12:56:59;19.10;;;7.57;;
24383;SDS011;12504;52.870;8.798;2023-12-04T12:59:27;16.17;;;8.02;;
24383;SDS011;12504;52.870;8.798;2023-12-04T13:01:53;19.83;;;7.57;;
24383;SDS011;12504;52.870;8.798;2023-12-04T13:04:21;20.45;;;8.63;;
24383;SDS011;12504;52.870;8.798;2023-12-04T13:06:48;13.63;;;6.15;;
24383;SDS011;12504;52.870;8.798;2023-12-04T13:09:14;15.27;;;6.35;;
24383;SDS011;12504;52.870;8.798;2023-12-04T13:11:45;19.02;;;7.50;;
24383;SDS011;12504;52.870;8.798;2023-12-04T13:14:12;12.05;;;6.75;;
24383;SDS011;12504;52.870;8.798;2023-12-04T13:16:38;11.45;;;5.78;;
24383;SDS011;12504;52.870;8.798;2023-12-04T13:19:05;18.08;;;7.28;;
24383;SDS011;12504;52.870;8.798;2023-12-04T13:21:31;18.92;;;8.65;;
24383;SDS011;12504;52.870;8.798;2023-12-04T13:23:57;15.77;;;7.38;;
24383;SDS011;12504;52.870;8.798;2023-12-04T13:26:23;20.63;;;7.78;;
24383;SDS011;12504;52.870;8.798;2023-12-04T13:28:49;15.98;;;6.95;;
24383;SDS011;12504;52.870;8.798;2023-12-04T13:31:16;19.38;;;7.97;;
24383;SDS011;12504;52.870;8.798;2023-12-04T13:33:42;17.75;;;7.57;;
24383;SDS011;12504;52.870;8.798;2023-12-04T13:36:11;14.73;;;7.13;;
24383;SDS011;12504;52.870;8.798;2023-12-04T13:38:37;17.55;;;6.97;;
24383;SDS011;12504;52.870;8.798;2023-12-04T13:41:03;15.80;;;7.22;;
24383;SDS011;12504;52.870;8.798;2023-12-04T13:43:48;18.23;;;7.45;;
24383;SDS011;12504;52.870;8.798;2023-12-04T13:46:17;14.23;;;7.37;;
24383;SDS011;12504;52.870;8.798;2023-12-04T13:48:43;15.63;;;7.97;;
24383;SDS011;12504;52.870;8.798;2023-12-04T13:51:10;18.25;;;7.20;;
24383;SDS011;12504;52.870;8.798;2023-12-04T13:53:36;17.30;;;7.03;;
24383;SDS011;12504;52.870;8.798;2023-12-04T13:56:10;15.90;;;7.55;;
24383;SDS011;12504;52.870;8.798;2023-12-04T13:58:36;17.02;;;7.07;;
24383;SDS011;12504;52.870;8.798;2023-12-04T14:01:04;13.55;;;6.47;;
24383;SDS011;12504;52.870;8.798;2023-12-04T14:03:43;16.92;;;7.20;;
24383;SDS011;12504;52.870;8.798;2023-12-04T14:06:09;17.67;;;6.40;;
24383;SDS011;12504;52.870;8.798;2023-12-04T14:08:35;14.98;;;6.35;;
24383;SDS011;12504;52.870;8.798;2023-12-04T14:11:05;18.67;;;7.50;;
24383;SDS011;12504;52.870;8.798;2023-12-04T14:13:34;13.30;;;6.33;;
24383;SDS011;12504;52.870;8.798;2023-12-04T14:16:01;16.15;;;6.70;;
24383;SDS011;12504;52.870;8.798;2023-12-04T14:18:27;18.40;;;7.35;;
24383;SDS011;12504;52.870;8.798;2023-12-04T14:20:55;15.52;;;6.70;;
24383;SDS011;12504;52.870;8.798;2023-12-04T14:23:21;15.07;;;6.63;;
24383;SDS011;12504;52.870;8.798;2023-12-04T14:25:47;13.32;;;6.60;;
24383;SDS011;12504;52.870;8.798;2023-12-04T14:28:13;14.05;;;6.40;;
24383;SDS011;12504;52.870;8.798;2023-12-04T14:30:40;13.38;;;6.97;;